TimeCST,TemperatureF,Dew PointF,Humidity,Sea Level PressureIn,VisibilityMPH,Wind Direction,Wind SpeedMPH,Gust SpeedMPH,PrecipitationIn,Events,Conditions,WindDirDegrees,DateUTC
12:55 AM,18.7,15.1,86,30.19,10.0,North,9.2,-,N/A,,Overcast,10,2013-02-27 06:55:00
1:55 AM,18.1,14.9,87,30.21,10.0,North,6.9,-,N/A,,Mostly Cloudy,350,2013-02-27 07:55:00
2:55 AM,20.7,17.4,87,30.23,10.0,North,5.8,-,N/A,,Overcast,360,2013-02-27 08:55:00
3:55 AM,22.1,19.0,88,30.23,10.0,NNW,8.1,-,N/A,,Overcast,340,2013-02-27 09:55:00
4:55 AM,22.5,19.4,88,30.24,10.0,North,10.4,-,N/A,,Overcast,350,2013-02-27 10:55:00
5:55 AM,22.3,19.6,89,30.26,10.0,NNW,11.5,-,N/A,,Overcast,330,2013-02-27 11:55:00
6:55 AM,22.6,20.1,90,30.29,10.0,North,10.4,-,N/A,,Overcast,350,2013-02-27 12:55:00
7:04 AM,23.0,19.4,86,30.29,10.0,North,10.4,-,N/A,,Overcast,350,2013-02-27 13:04:00
7:55 AM,22.3,19.6,89,30.31,10.0,North,10.4,-,0.00,,Overcast,350,2013-02-27 13:55:00
8:35 AM,23.0,19.4,86,30.32,10.0,North,12.7,-,N/A,,Overcast,350,2013-02-27 14:35:00
8:55 AM,21.9,18.3,86,30.32,10.0,North,11.5,-,0.00,,Mostly Cloudy,350,2013-02-27 14:55:00
9:49 AM,23.0,19.4,86,30.33,10.0,North,12.7,-,N/A,,Freezing Rain,360,2013-02-27 15:49:00
9:55 AM,23.0,18.9,84,30.33,10.0,North,11.5,-,0.00,,Overcast,360,2013-02-27 15:55:00
10:55 AM,24.3,19.8,83,30.33,10.0,North,12.7,-,N/A,,Overcast,10,2013-02-27 16:55:00
11:55 AM,25.0,20.5,83,30.34,10.0,North,13.8,-,N/A,,Overcast,360,2013-02-27 17:55:00
12:32 PM,24.8,21.2,86,30.35,10.0,North,13.8,-,N/A,,Overcast,360,2013-02-27 18:32:00
12:55 PM,25.3,20.5,82,30.35,10.0,North,13.8,-,N/A,,Overcast,360,2013-02-27 18:55:00
1:55 PM,24.4,19.6,82,30.35,10.0,North,11.5,-,N/A,,Overcast,360,2013-02-27 19:55:00
2:55 PM,24.6,19.2,80,30.35,10.0,North,12.7,-,N/A,,Overcast,10,2013-02-27 20:55:00
3:55 PM,23.4,18.3,81,30.36,10.0,North,11.5,-,N/A,,Overcast,350,2013-02-27 21:55:00
4:55 PM,22.8,18.5,83,30.37,10.0,North,11.5,-,N/A,,Overcast,350,2013-02-27 22:55:00
5:29 PM,23.0,17.6,80,30.37,10.0,North,9.2,-,N/A,,Overcast,350,2013-02-27 23:29:00
5:55 PM,21.6,17.2,83,30.38,10.0,NNW,10.4,-,N/A,,Overcast,330,2013-02-27 23:55:00
6:47 PM,19.4,15.8,86,30.28,10.0,NW,9.2,-,N/A,,Mostly Cloudy,320,2013-02-28 00:47:00
6:55 PM,19.9,16.0,85,30.39,10.0,NNW,10.4,-,N/A,,Mostly Cloudy,330,2013-02-28 00:55:00
7:55 PM,18.3,14.5,85,30.39,10.0,NNW,8.1,-,N/A,,Overcast,330,2013-02-28 01:55:00
8:55 PM,18.0,13.8,84,30.39,10.0,NNW,8.1,-,N/A,,Overcast,330,2013-02-28 02:55:00
9:55 PM,17.1,12.6,82,30.38,10.0,North,6.9,-,N/A,,Overcast,350,2013-02-28 03:55:00
10:55 PM,16.2,11.7,82,30.38,10.0,North,9.2,-,N/A,,Overcast,360,2013-02-28 04:55:00
11:55 PM,14.0,10.4,86,30.48,10.0,NW,9.2,-,N/A,,Overcast,320,2013-02-28 05:55:00